Time;durP1;ratioP1;P1;durP2;ratioP2;P2;SDS_P1;SDS_P2;PMS_P1;PMS_P2;Temp;Humidity;BMP_temperature;BMP_pressure;BME280_temperature;BME280_humidity;BME280_pressure;Samples;Min_cycle;Max_cycle;Signal;HPM_P1;HPM_P2
2022/08/19 00:00:50;;;;;;;21.60;17.30;;;21.70;99.60;;;;;;5018693;28;20487;-52
2022/08/19 00:03:16;;;;;;;23.53;17.17;;;21.70;99.70;;;;;;5024135;28;20515;-52
2022/08/19 00:05:45;;;;;;;30.20;20.67;;;21.80;99.50;;;;;;5016911;28;20957;-54
2022/08/19 00:08:12;;;;;;;26.33;19.10;;;21.80;99.40;;;;;;5041771;28;20566;-52
2022/08/19 00:10:38;;;;;;;21.20;17.20;;;21.80;99.90;;;;;;5022271;28;20483;-52
2022/08/19 00:13:05;;;;;;;27.43;18.30;;;21.80;99.70;;;;;;5028152;28;20494;-53
2022/08/19 00:15:32;;;;;;;26.03;21.80;;;21.80;99.80;;;;;;5026621;28;20468;-52
2022/08/19 00:17:59;;;;;;;19.77;17.40;;;21.70;99.90;;;;;;5003156;28;20471;-52
2022/08/19 00:20:26;;;;;;;28.43;20.90;;;21.70;99.40;;;;;;5025058;28;20503;-52
2022/08/19 00:22:55;;;;;;;28.43;22.20;;;21.70;99.60;;;;;;5025502;28;20475;-52
2022/08/19 00:25:22;;;;;;;37.60;25.70;;;21.70;99.20;;;;;;5029246;28;20495;-52
2022/08/19 00:27:48;;;;;;;21.30;17.33;;;21.70;99.50;;;;;;5012397;28;21295;-53
2022/08/19 00:30:16;;;;;;;21.23;15.77;;;21.70;99.70;;;;;;5028756;28;20472;-52
2022/08/19 00:32:42;;;;;;;22.93;17.53;;;21.60;99.80;;;;;;5022829;28;20492;-52
2022/08/19 00:35:10;;;;;;;19.67;16.50;;;21.60;99.80;;;;;;5025075;28;20488;-52
2022/08/19 00:37:37;;;;;;;21.63;17.90;;;21.60;99.40;;;;;;5014606;28;20635;-52
2022/08/19 00:40:07;;;;;;;19.10;16.90;;;21.60;99.40;;;;;;5018895;28;20481;-55
2022/08/19 00:42:33;;;;;;;23.43;18.60;;;21.60;99.50;;;;;;5026304;28;20479;-55
2022/08/19 00:45:00;;;;;;;21.80;16.80;;;21.60;99.70;;;;;;5023605;28;20863;-52
2022/08/19 00:47:27;;;;;;;23.43;19.37;;;21.60;99.90;;;;;;5014608;28;20878;-52
2022/08/19 00:49:58;;;;;;;25.20;19.70;;;21.60;99.10;;;;;;5025558;28;20937;-52
2022/08/19 00:52:28;;;;;;;26.27;19.90;;;21.60;99.50;;;;;;5026860;28;20480;-52
2022/08/19 00:54:56;;;;;;;25.00;18.20;;;21.60;99.50;;;;;;5032327;28;20499;-52
2022/08/19 00:57:29;;;;;;;24.20;18.40;;;21.60;99.50;;;;;;5032107;28;20482;-52
2022/08/19 00:59:58;;;;;;;23.43;15.30;;;21.60;99.70;;;;;;5035214;28;21287;-52
2022/08/19 01:02:25;;;;;;;21.93;18.90;;;21.60;99.70;;;;;;5036585;28;20520;-51
2022/08/19 01:04:52;;;;;;;23.00;18.30;;;21.60;99.80;;;;;;5034042;28;20831;-52
2022/08/19 01:07:19;;;;;;;21.00;16.80;;;21.50;99.90;;;;;;5034969;28;20488;-52
2022/08/19 01:09:45;;;;;;;24.83;17.60;;;21.50;99.80;;;;;;5037044;28;20454;-51
2022/08/19 01:12:13;;;;;;;19.67;15.93;;;21.50;99.70;;;;;;5036470;28;20472;-52
2022/08/19 01:14:41;;;;;;;19.47;16.27;;;21.50;99.80;;;;;;5035758;28;20770;-52
2022/08/19 01:17:09;;;;;;;17.83;15.17;;;21.40;99.90;;;;;;5036676;28;20484;-52
2022/08/19 01:19:40;;;;;;;20.80;17.67;;;21.40;99.90;;;;;;5037535;28;20744;-53
2022/08/19 01:22:12;;;;;;;20.57;16.10;;;21.30;99.90;;;;;;5034970;28;20514;-53
2022/08/19 01:24:40;;;;;;;22.40;17.60;;;21.20;99.90;;;;;;5022111;28;20482;-53
2022/08/19 01:27:08;;;;;;;36.10;19.37;;;20.90;99.90;;;;;;5033099;28;20480;-52
2022/08/19 01:29:41;;;;;;;26.30;21.20;;;20.80;99.90;;;;;;5031746;28;20477;-52
2022/08/19 01:32:08;;;;;;;29.23;20.10;;;20.80;99.90;;;;;;5013884;28;20479;-52
2022/08/19 01:34:35;;;;;;;27.87;19.43;;;20.90;99.90;;;;;;5031813;28;20968;-52
2022/08/19 01:37:08;;;;;;;25.43;18.60;;;21.00;99.90;;;;;;5035691;28;20869;-53
2022/08/19 01:39:35;;;;;;;23.77;18.30;;;21.00;99.90;;;;;;5036086;28;20972;-52
2022/08/19 01:42:04;;;;;;;21.23;17.30;;;21.00;99.90;;;;;;5034077;28;20514;-52
2022/08/19 01:44:31;;;;;;;23.90;19.83;;;21.10;99.90;;;;;;5036248;28;20851;-52
2022/08/19 01:46:58;;;;;;;26.27;17.63;;;21.10;99.90;;;;;;5034990;28;20605;-51
2022/08/19 01:49:26;;;;;;;27.37;20.23;;;21.10;99.90;;;;;;5034863;28;20479;-52
2022/08/19 01:51:53;;;;;;;26.90;19.57;;;21.10;99.90;;;;;;5036323;28;20486;-51
2022/08/19 01:54:23;;;;;;;23.73;18.10;;;21.00;99.90;;;;;;5034779;28;21347;-51
2022/08/19 01:56:51;;;;;;;26.50;17.40;;;20.90;99.90;;;;;;5035233;28;20507;-52
2022/08/19 01:59:22;;;;;;;26.97;20.80;;;20.90;99.90;;;;;;5035464;28;20562;-52
2022/08/19 02:01:49;;;;;;;29.70;19.43;;;20.90;99.90;;;;;;5033839;28;20483;-52
2022/08/19 02:04:15;;;;;;;36.63;23.97;;;21.00;99.90;;;;;;5032215;28;21205;-52
2022/08/19 02:06:42;;;;;;;32.70;23.27;;;21.00;99.90;;;;;;5033334;28;20666;-52
2022/08/19 02:09:09;;;;;;;28.30;18.53;;;21.00;99.90;;;;;;5026807;28;20476;-52
2022/08/19 02:11:37;;;;;;;27.60;19.83;;;21.10;99.90;;;;;;5045145;28;20482;-52
2022/08/19 02:14:06;;;;;;;26.67;19.30;;;21.10;99.90;;;;;;5034449;28;20500;-51
2022/08/19 02:16:35;;;;;;;28.40;20.60;;;21.20;99.90;;;;;;5033798;28;20491;-51
2022/08/19 02:19:03;;;;;;;29.23;18.47;;;21.20;99.90;;;;;;5033838;28;20491;-52
2022/08/19 02:21:30;;;;;;;27.67;19.10;;;21.20;99.90;;;;;;5036015;28;20487;-51
2022/08/19 02:23:57;;;;;;;24.33;18.80;;;21.10;99.90;;;;;;5033226;28;20995;-51
2022/08/19 02:26:26;;;;;;;29.17;21.70;;;21.20;99.90;;;;;;5034922;28;20495;-52
2022/08/19 02:28:53;;;;;;;24.60;19.30;;;21.20;99.90;;;;;;5035031;28;20961;-52
2022/08/19 02:31:22;;;;;;;22.43;17.80;;;21.10;99.90;;;;;;5035103;28;20475;-51
2022/08/19 02:33:52;;;;;;;23.80;17.63;;;21.20;99.90;;;;;;5035219;28;20562;-52
2022/08/19 02:36:19;;;;;;;22.47;17.50;;;21.10;99.90;;;;;;5021342;28;20498;-52
2022/08/19 02:38:45;;;;;;;30.90;19.17;;;21.10;99.90;;;;;;5034378;28;20479;-52
2022/08/19 02:41:14;;;;;;;23.43;18.87;;;21.10;99.90;;;;;;5035505;28;20478;-52
2022/08/19 02:43:41;;;;;;;29.40;19.40;;;21.00;99.90;;;;;;5036472;28;20468;-52
2022/08/19 02:46:20;;;;;;;25.40;19.27;;;20.90;99.90;;;;;;5023957;28;20484;-52
2022/08/19 02:48:47;;;;;;;27.13;20.27;;;20.90;99.90;;;;;;5037093;28;20501;-53
2022/08/19 02:51:20;;;;;;;28.40;20.50;;;20.90;99.90;;;;;;5035772;28;20471;-53
2022/08/19 02:53:46;;;;;;;23.40;17.83;;;21.00;99.90;;;;;;5035556;28;21237;-52
2022/08/19 02:56:13;;;;;;;27.43;18.50;;;21.00;99.90;;;;;;5035940;28;20496;-52
2022/08/19 02:58:41;;;;;;;34.83;21.13;;;20.90;99.90;;;;;;5034793;28;20478;-52
2022/08/19 03:01:08;;;;;;;33.57;22.20;;;20.90;99.90;;;;;;5034977;28;20923;-52
2022/08/19 03:03:35;;;;;;;53.17;25.27;;;20.80;99.90;;;;;;5034265;28;20918;-52
2022/08/19 03:06:10;;;;;;;26.50;19.63;;;20.80;99.90;;;;;;5034107;28;20484;-52
2022/08/19 03:08:39;;;;;;;28.27;20.23;;;20.80;99.90;;;;;;5033791;28;20496;-52
2022/08/19 03:11:06;;;;;;;26.07;17.80;;;20.80;99.90;;;;;;5034370;28;20483;-52
2022/08/19 03:13:33;;;;;;;24.43;20.13;;;20.80;99.90;;;;;;5028302;28;20491;-52
2022/08/19 03:15:59;;;;;;;31.77;22.10;;;20.70;99.90;;;;;;5028072;28;20915;-52
2022/08/19 03:18:26;;;;;;;26.87;20.00;;;20.70;99.90;;;;;;5039567;28;20489;-52
2022/08/19 03:20:54;;;;;;;33.23;20.77;;;20.80;99.90;;;;;;5034422;28;20478;-52
2022/08/19 03:23:21;;;;;;;35.93;20.00;;;20.70;99.90;;;;;;5022390;28;20505;-52
2022/08/19 03:25:52;;;;;;;31.83;20.80;;;20.70;99.90;;;;;;5038088;28;21144;-52
2022/08/19 03:28:20;;;;;;;33.03;22.87;;;20.80;99.90;;;;;;5034106;28;20493;-52
2022/08/19 03:30:57;;;;;;;30.67;21.50;;;20.70;99.90;;;;;;5034573;28;20566;-52
2022/08/19 03:33:24;;;;;;;26.13;18.23;;;20.70;99.90;;;;;;5035039;28;20854;-52
2022/08/19 03:36:06;;;;;;;30.00;20.80;;;20.60;99.90;;;;;;5035183;28;20476;-52
2022/08/19 03:38:33;;;;;;;27.23;19.80;;;20.50;99.90;;;;;;5031587;28;21161;-54
2022/08/19 03:41:06;;;;;;;27.77;18.40;;;20.50;99.90;;;;;;5034498;28;20499;-52
2022/08/19 03:43:34;;;;;;;28.53;19.30;;;20.50;99.90;;;;;;5034369;28;20992;-52
2022/08/19 03:46:02;;;;;;;30.17;21.17;;;20.50;99.90;;;;;;5024022;28;21114;-51
2022/08/19 03:48:30;;;;;;;32.30;23.53;;;20.40;99.90;;;;;;5033251;28;20486;-52
2022/08/19 03:50:58;;;;;;;34.53;21.27;;;20.20;99.90;;;;;;5034691;28;20472;-51
2022/08/19 03:53:25;;;;;;;30.50;22.00;;;20.10;99.90;;;;;;5033972;28;20490;-52
2022/08/19 03:55:52;;;;;;;30.87;22.13;;;20.00;99.90;;;;;;5032090;28;20565;-51
2022/08/19 03:58:21;;;;;;;28.17;20.30;;;20.10;99.90;;;;;;5034411;28;20487;-51
2022/08/19 04:00:47;;;;;;;32.73;21.07;;;20.10;99.90;;;;;;5036994;28;20491;-51
2022/08/19 04:03:14;;;;;;;26.10;18.70;;;20.10;99.90;;;;;;5037353;28;20487;-51
2022/08/19 04:05:41;;;;;;;30.30;19.20;;;20.10;99.90;;;;;;5030814;28;20487;-50
2022/08/19 04:08:07;;;;;;;28.03;19.70;;;20.00;99.90;;;;;;5033923;28;20483;-51
2022/08/19 04:10:37;;;;;;;29.60;22.83;;;20.00;99.90;;;;;;5036882;28;21128;-51
2022/08/19 04:13:05;;;;;;;42.93;25.93;;;19.90;99.90;;;;;;5037374;28;21189;-51
2022/08/19 04:15:39;;;;;;;30.67;22.33;;;19.90;99.90;;;;;;5036374;28;20540;-51
2022/08/19 04:18:07;;;;;;;31.73;22.13;;;19.90;99.90;;;;;;5026121;28;20879;-51
2022/08/19 04:20:34;;;;;;;29.47;20.50;;;19.90;99.90;;;;;;5037315;28;20477;-51
2022/08/19 04:23:00;;;;;;;27.53;20.03;;;19.90;99.90;;;;;;5037080;28;20489;-51
2022/08/19 04:25:27;;;;;;;27.13;20.47;;;19.90;99.90;;;;;;5037910;28;20494;-51
2022/08/19 04:27:54;;;;;;;29.70;20.63;;;19.80;99.90;;;;;;5036149;28;21015;-52
2022/08/19 04:30:22;;;;;;;30.43;19.27;;;19.80;99.90;;;;;;5028756;28;20837;-51
2022/08/19 04:32:50;;;;;;;31.07;20.30;;;19.80;99.90;;;;;;5038970;28;20873;-51
2022/08/19 04:35:17;;;;;;;33.07;21.70;;;19.80;99.90;;;;;;5034958;28;20506;-52
2022/08/19 04:37:44;;;;;;;29.40;20.03;;;19.90;99.90;;;;;;5029428;28;20840;-52
2022/08/19 04:42:56;;;;;;;24.40;18.20;;;19.80;99.90;;;;;;5036446;28;20475;-52
2022/08/19 04:45:23;;;;;;;26.10;20.17;;;19.70;99.90;;;;;;5036852;28;20483;-52
2022/08/19 04:47:56;;;;;;;27.60;18.57;;;19.70;99.90;;;;;;5035322;28;20809;-52
2022/08/19 04:50:23;;;;;;;30.63;19.93;;;19.70;99.90;;;;;;5033169;28;21019;-52
2022/08/19 04:52:52;;;;;;;31.90;20.00;;;19.60;99.90;;;;;;5036886;28;20478;-52
2022/08/19 04:55:19;;;;;;;29.43;21.00;;;19.60;99.90;;;;;;5036632;28;20478;-52
2022/08/19 04:57:46;;;;;;;30.60;21.47;;;19.60;99.90;;;;;;5036719;28;20499;-52
2022/08/19 05:00:13;;;;;;;30.40;18.43;;;19.60;99.90;;;;;;5025064;28;20494;-52
2022/08/19 05:02:40;;;;;;;29.33;20.47;;;19.60;99.90;;;;;;5040751;28;21000;-51
2022/08/19 05:05:09;;;;;;;36.37;23.07;;;19.50;99.90;;;;;;5035254;28;20478;-52
2022/08/19 05:07:36;;;;;;;32.30;21.03;;;19.60;99.90;;;;;;5034698;28;20478;-52
2022/08/19 05:10:05;;;;;;;35.07;22.50;;;19.50;99.90;;;;;;5035768;28;21259;-52
2022/08/19 05:12:32;;;;;;;32.43;22.37;;;19.50;99.90;;;;;;5030318;28;20474;-52
2022/08/19 05:15:00;;;;;;;31.37;20.67;;;19.40;99.90;;;;;;5035570;28;21051;-52
2022/08/19 05:17:27;;;;;;;34.87;22.77;;;19.40;99.90;;;;;;5024126;28;21039;-51
2022/08/19 05:22:40;;;;;;;27.40;20.43;;;19.40;99.90;;;;;;5037343;28;20485;-51
2022/08/19 05:25:11;;;;;;;39.33;21.53;;;19.30;99.90;;;;;;5036378;28;20482;-51
2022/08/19 05:27:38;;;;;;;32.60;21.80;;;19.30;99.90;;;;;;5031433;28;20935;-52
2022/08/19 05:30:06;;;;;;;31.20;20.80;;;19.40;99.90;;;;;;5036375;28;20475;-52
2022/08/19 05:32:33;;;;;;;27.10;20.50;;;19.50;99.90;;;;;;5032248;28;20520;-52
2022/08/19 05:35:00;;;;;;;33.47;22.90;;;19.50;99.90;;;;;;5034012;28;20841;-52
2022/08/19 05:37:27;;;;;;;29.40;19.83;;;19.40;99.90;;;;;;5034697;28;20490;-52
2022/08/19 05:39:56;;;;;;;32.57;21.80;;;19.40;99.90;;;;;;5036187;28;20511;-52
2022/08/19 05:42:23;;;;;;;30.47;19.57;;;19.40;99.90;;;;;;5034283;28;20510;-52
2022/08/19 05:44:51;;;;;;;28.90;20.50;;;19.40;99.90;;;;;;5036328;28;20483;-52
2022/08/19 05:47:19;;;;;;;28.40;20.10;;;19.50;99.90;;;;;;5035991;28;20483;-52
2022/08/19 05:49:46;;;;;;;32.07;19.50;;;19.50;99.90;;;;;;5033697;28;20472;-52
2022/08/19 05:52:15;;;;;;;28.57;21.20;;;19.50;99.90;;;;;;5033412;28;20480;-52
2022/08/19 05:54:42;;;;;;;30.17;21.20;;;19.50;99.90;;;;;;5035263;28;20479;-52
2022/08/19 05:57:11;;;;;;;35.37;22.13;;;19.50;99.90;;;;;;5021887;28;20484;-52
2022/08/19 05:59:37;;;;;;;36.73;23.10;;;19.80;99.90;;;;;;5032639;28;20487;-52
2022/08/19 06:02:07;;;;;;;33.40;22.23;;;19.90;99.90;;;;;;5036564;28;20484;-52
2022/08/19 06:04:34;;;;;;;44.03;25.23;;;20.00;99.90;;;;;;5035269;28;20511;-52
2022/08/19 06:07:01;;;;;;;34.47;22.67;;;20.00;99.90;;;;;;5034435;28;20479;-53
2022/08/19 06:09:28;;;;;;;41.30;24.07;;;20.20;99.90;;;;;;5034171;28;20920;-53
2022/08/19 06:11:59;;;;;;;48.93;23.90;;;20.30;99.90;;;;;;5022152;28;20495;-53
2022/08/19 06:14:30;;;;;;;36.33;23.30;;;20.40;99.90;;;;;;5031076;28;20482;-53
2022/08/19 06:16:59;;;;;;;41.33;22.87;;;20.40;99.90;;;;;;5031716;28;20498;-53
2022/08/19 06:19:26;;;;;;;40.60;25.63;;;20.70;99.90;;;;;;5036194;28;20877;-53
2022/08/19 06:21:54;;;;;;;35.47;22.60;;;20.90;99.90;;;;;;5028178;28;20505;-53
2022/08/19 06:24:23;;;;;;;39.17;23.40;;;21.10;99.90;;;;;;5037151;28;20554;-55
2022/08/19 06:26:52;;;;;;;32.07;22.40;;;21.20;99.90;;;;;;5037255;28;20494;-54
2022/08/19 06:29:20;;;;;;;29.63;21.17;;;21.30;99.90;;;;;;5036813;28;20478;-53
2022/08/19 06:31:51;;;;;;;33.80;22.17;;;21.50;99.90;;;;;;5035818;28;20481;-53
2022/08/19 06:34:19;;;;;;;30.97;22.47;;;21.50;99.90;;;;;;5031493;28;20483;-53
2022/08/19 06:36:48;;;;;;;31.57;22.73;;;21.60;99.90;;;;;;5022623;28;20827;-53
2022/08/19 06:39:20;;;;;;;34.00;22.73;;;21.70;99.90;;;;;;5034123;28;20717;-52
2022/08/19 06:41:49;;;;;;;31.90;21.37;;;21.80;99.90;;;;;;5032495;28;20491;-53
2022/08/19 06:44:16;;;;;;;36.60;22.83;;;22.10;99.80;;;;;;5036308;28;20487;-53
2022/08/19 06:46:44;;;;;;;31.50;21.17;;;22.10;99.80;;;;;;5034253;28;20484;-53
2022/08/19 06:49:13;;;;;;;32.43;20.27;;;22.40;99.70;;;;;;5036201;28;20483;-53
2022/08/19 06:51:42;;;;;;;23.70;17.77;;;22.70;99.40;;;;;;5024992;28;20561;-53
2022/08/19 06:54:10;;;;;;;22.63;18.50;;;22.80;98.90;;;;;;5040800;28;20839;-53
2022/08/19 06:56:37;;;;;;;24.50;17.80;;;23.00;98.80;;;;;;5028811;28;21006;-53
2022/08/19 06:59:06;;;;;;;26.27;18.90;;;23.40;98.30;;;;;;5034830;28;20487;-53
2022/08/19 07:01:37;;;;;;;24.27;18.70;;;23.80;97.70;;;;;;5035779;28;20490;-53
2022/08/19 07:04:04;;;;;;;22.23;17.20;;;24.20;96.90;;;;;;5030585;28;20580;-52
2022/08/19 07:06:32;;;;;;;26.90;17.13;;;24.40;97.00;;;;;;5026642;28;20499;-54
2022/08/19 07:08:59;;;;;;;19.83;15.97;;;24.60;96.70;;;;;;5034035;28;20472;-53
2022/08/19 07:11:26;;;;;;;23.70;17.30;;;24.90;95.60;;;;;;5031790;28;21356;-53
2022/08/19 07:13:53;;;;;;;27.37;19.33;;;25.30;93.80;;;;;;5038985;28;20475;-53
2022/08/19 07:16:20;;;;;;;27.07;17.60;;;25.40;93.20;;;;;;5032457;28;20502;-53
2022/08/19 07:18:48;;;;;;;28.03;19.00;;;25.60;93.00;;;;;;5033595;28;20458;-53
2022/08/19 07:21:19;;;;;;;31.97;20.27;;;25.80;93.20;;;;;;5034404;28;20487;-53
2022/08/19 07:23:47;;;;;;;29.47;19.63;;;26.00;91.40;;;;;;5035015;28;20484;-53
2022/08/19 07:26:18;;;;;;;23.80;18.40;;;26.20;91.00;;;;;;5035682;28;21086;-53
2022/08/19 07:28:46;;;;;;;18.87;15.63;;;26.40;90.80;;;;;;5032927;28;21484;-54
2022/08/19 07:31:15;;;;;;;22.53;17.83;;;26.40;91.20;;;;;;5035407;28;20485;-53
2022/08/19 07:33:42;;;;;;;22.20;16.33;;;26.60;90.50;;;;;;5037317;28;21034;-53
2022/08/19 07:36:12;;;;;;;21.90;17.80;;;26.60;90.20;;;;;;5039374;28;20490;-53
2022/08/19 07:38:41;;;;;;;23.23;19.57;;;26.70;89.80;;;;;;5037682;28;20726;-53
2022/08/19 07:41:12;;;;;;;29.80;20.30;;;26.70;90.00;;;;;;5038329;28;20487;-53
2022/08/19 07:43:38;;;;;;;26.97;18.60;;;26.70;89.00;;;;;;5032235;28;20490;-54
2022/08/19 07:46:06;;;;;;;25.00;18.90;;;26.90;89.30;;;;;;5035976;28;20869;-54
2022/08/19 07:48:33;;;;;;;18.33;15.60;;;26.90;89.60;;;;;;5037551;28;20562;-54
2022/08/19 07:51:02;;;;;;;23.40;18.07;;;26.80;87.00;;;;;;5039505;28;20519;-53
2022/08/19 07:53:29;;;;;;;23.27;18.20;;;26.80;88.30;;;;;;5027766;28;20475;-53
2022/08/19 07:55:58;;;;;;;31.30;18.20;;;26.90;88.40;;;;;;5038013;28;20486;-54
2022/08/19 07:58:27;;;;;;;20.17;17.53;;;26.80;87.60;;;;;;5037636;28;20819;-53
2022/08/19 08:00:54;;;;;;;22.53;17.77;;;26.70;87.20;;;;;;5038580;28;20475;-53
2022/08/19 08:09:10;;;;;;;20.40;17.87;;;26.60;88.40;;;;;;5037829;28;20471;-53
2022/08/19 08:09:15;;;;;;;21.27;15.73;;;26.60;88.80;;;;;;4965604;28;21234;-54
2022/08/19 08:11:49;;;;;;;22.40;18.60;;;26.50;88.00;;;;;;4975830;28;20907;-53
2022/08/19 08:14:19;;;;;;;25.73;19.30;;;26.40;89.00;;;;;;5007450;28;20484;-54
2022/08/19 08:16:46;;;;;;;22.30;18.10;;;26.60;89.10;;;;;;5036899;28;20488;-55
2022/08/19 08:19:15;;;;;;;28.00;19.80;;;26.70;88.90;;;;;;5028517;28;20503;-53
2022/08/19 08:21:42;;;;;;;20.37;17.30;;;26.80;87.70;;;;;;5032916;28;21262;-54
2022/08/19 08:24:09;;;;;;;19.50;16.63;;;27.00;88.60;;;;;;5038058;28;20981;-55
2022/08/19 08:26:36;;;;;;;26.33;18.90;;;27.40;87.00;;;;;;5035620;28;20503;-53
2022/08/19 08:29:03;;;;;;;22.53;18.30;;;27.70;86.20;;;;;;5038436;28;20476;-54
2022/08/19 08:31:33;;;;;;;22.23;18.57;;;27.80;86.50;;;;;;5038594;28;20461;-54
2022/08/19 08:33:59;;;;;;;19.77;17.43;;;28.10;85.00;;;;;;5023231;28;20462;-54
2022/08/19 08:36:27;;;;;;;20.37;18.00;;;28.40;83.70;;;;;;5032956;28;20498;-54
2022/08/19 08:38:56;;;;;;;27.67;17.43;;;28.60;81.80;;;;;;5033940;28;20487;-54
2022/08/19 08:41:29;;;;;;;22.53;15.60;;;28.70;82.20;;;;;;5036517;28;20494;-55
2022/08/19 08:43:57;;;;;;;16.67;12.30;;;28.80;82.60;;;;;;5032697;28;20453;-54
2022/08/19 08:46:31;;;;;;;23.57;15.00;;;28.70;81.60;;;;;;5038885;28;20486;-55
2022/08/19 08:49:07;;;;;;;17.20;14.77;;;28.70;80.80;;;;;;5033775;28;20458;-54
2022/08/19 08:51:37;;;;;;;19.83;15.17;;;28.80;79.30;;;;;;5032942;28;20461;-54
2022/08/19 08:54:07;;;;;;;16.03;13.70;;;28.90;79.10;;;;;;5026240;28;21130;-53
2022/08/19 08:56:34;;;;;;;19.03;13.93;;;29.10;78.60;;;;;;5023608;28;20458;-53
2022/08/19 08:59:07;;;;;;;13.80;12.13;;;29.10;78.40;;;;;;5038477;28;21055;-53
2022/08/19 09:01:34;;;;;;;14.50;13.00;;;29.20;75.70;;;;;;5031460;28;20506;-51
2022/08/19 09:04:04;;;;;;;17.00;12.53;;;29.20;76.40;;;;;;5036421;28;20969;-52
2022/08/19 09:06:38;;;;;;;16.20;12.77;;;29.30;76.80;;;;;;5035277;28;20474;-51
2022/08/19 09:09:13;;;;;;;16.30;14.50;;;29.30;76.70;;;;;;5032296;28;20635;-53
2022/08/19 09:11:56;;;;;;;14.97;12.37;;;29.20;76.20;;;;;;5001951;28;20474;-53
2022/08/19 09:14:33;;;;;;;16.13;12.50;;;29.00;75.80;;;;;;5031405;28;20450;-54
2022/08/19 09:17:03;;;;;;;12.53;11.17;;;28.90;74.60;;;;;;5033847;28;20469;-53
2022/08/19 09:19:31;;;;;;;12.60;11.30;;;29.00;75.30;;;;;;5036837;28;21090;-53
2022/08/19 09:22:00;;;;;;;13.20;11.80;;;28.90;73.70;;;;;;5036315;28;20548;-53
2022/08/19 09:24:27;;;;;;;14.83;11.10;;;28.90;74.70;;;;;;5032132;28;20677;-54
2022/08/19 09:26:53;;;;;;;11.87;10.67;;;29.00;74.80;;;;;;5042316;28;20482;-53
2022/08/19 09:29:21;;;;;;;18.40;10.90;;;29.20;75.40;;;;;;5037500;28;20506;-53
2022/08/19 09:31:47;;;;;;;15.00;11.13;;;29.40;73.50;;;;;;5037597;28;20487;-53
2022/08/19 09:34:14;;;;;;;10.60;9.63;;;29.50;72.80;;;;;;5029039;28;20964;-53
2022/08/19 09:36:42;;;;;;;13.70;9.40;;;29.80;72.20;;;;;;5015459;28;20940;-53
2022/08/19 09:39:09;;;;;;;14.20;10.70;;;29.90;71.60;;;;;;5027580;28;20999;-53
2022/08/19 09:41:36;;;;;;;10.00;9.13;;;30.20;71.30;;;;;;5023417;28;20484;-54
2022/08/19 09:44:03;;;;;;;11.60;10.50;;;30.40;71.30;;;;;;5021282;28;20462;-53
2022/08/19 09:46:31;;;;;;;12.00;10.80;;;30.50;71.60;;;;;;5029685;28;21330;-54
2022/08/19 09:49:00;;;;;;;11.27;9.33;;;30.40;71.20;;;;;;5031119;28;20538;-54
2022/08/19 09:51:29;;;;;;;11.87;10.80;;;30.40;70.10;;;;;;5036402;28;20495;-53
2022/08/19 09:54:01;;;;;;;10.33;9.33;;;30.40;71.10;;;;;;5035920;28;20462;-52
2022/08/19 09:56:30;;;;;;;10.00;9.10;;;30.60;71.10;;;;;;5030749;28;20530;-51
2022/08/19 09:58:58;;;;;;;10.07;9.17;;;30.60;69.60;;;;;;5032064;28;20970;-53
2022/08/19 10:01:28;;;;;;;11.47;10.37;;;30.60;68.60;;;;;;5035826;28;20461;-56
2022/08/19 10:03:56;;;;;;;13.33;9.60;;;30.70;68.90;;;;;;5033591;28;20490;-56
2022/08/19 10:06:25;;;;;;;11.10;10.03;;;30.70;68.50;;;;;;5035505;28;21013;-53
2022/08/19 10:08:52;;;;;;;9.97;8.97;;;31.00;69.60;;;;;;5034726;28;20514;-53
2022/08/19 10:11:21;;;;;;;10.60;9.70;;;31.20;68.50;;;;;;5036997;28;20487;-54
2022/08/19 10:13:48;;;;;;;10.17;9.30;;;31.20;69.00;;;;;;5039683;28;20484;-54
2022/08/19 10:16:18;;;;;;;11.23;9.97;;;31.60;68.90;;;;;;5015445;28;20483;-54
2022/08/19 10:18:45;;;;;;;12.03;8.97;;;31.50;66.00;;;;;;5033572;28;20534;-55
2022/08/19 10:21:14;;;;;;;11.90;9.50;;;31.50;67.60;;;;;;5037092;28;20965;-55
2022/08/19 10:23:44;;;;;;;12.03;8.93;;;31.40;65.50;;;;;;5035280;28;20832;-54
2022/08/19 10:26:12;;;;;;;11.63;8.90;;;31.50;68.40;;;;;;5036051;28;20442;-54
2022/08/19 10:28:40;;;;;;;12.10;10.40;;;31.40;65.60;;;;;;5035344;28;20458;-52
2022/08/19 10:31:08;;;;;;;9.40;8.50;;;31.10;64.20;;;;;;5033454;28;20482;-51
2022/08/19 10:33:36;;;;;;;9.47;8.50;;;31.00;64.20;;;;;;5031524;28;20606;-51
2022/08/19 10:36:05;;;;;;;8.97;8.10;;;30.60;66.20;;;;;;5028713;28;20450;-51
2022/08/19 10:38:33;;;;;;;10.00;8.50;;;30.40;67.00;;;;;;5029643;28;20462;-51
2022/08/19 10:41:08;;;;;;;13.30;9.93;;;30.10;67.30;;;;;;5031996;28;20460;-51
2022/08/19 10:43:37;;;;;;;10.03;9.00;;;29.90;68.20;;;;;;5035457;28;20486;-51
2022/08/19 10:46:05;;;;;;;10.63;9.63;;;29.90;68.30;;;;;;5034531;28;20475;-51
2022/08/19 10:48:33;;;;;;;11.20;10.10;;;30.00;67.20;;;;;;5034551;28;20458;-51
2022/08/19 10:53:44;;;;;;;9.13;8.40;;;30.30;67.60;;;;;;5034529;28;21367;-52
2022/08/19 10:58:56;;;;;;;9.80;8.80;;;30.90;65.80;;;;;;5025484;28;20475;-53
2022/08/19 11:01:24;;;;;;;8.50;7.80;;;31.30;66.50;;;;;;5034824;28;20484;-52
2022/08/19 11:03:52;;;;;;;10.93;9.37;;;31.40;64.30;;;;;;5015414;28;20838;-52
2022/08/19 11:06:19;;;;;;;10.17;8.50;;;31.40;64.60;;;;;;5032218;28;20462;-53
2022/08/19 11:08:46;;;;;;;9.83;8.87;;;31.20;62.50;;;;;;5039066;28;20645;-55
2022/08/19 11:11:13;;;;;;;11.40;8.40;;;31.10;63.50;;;;;;5039763;28;20482;-53
2022/08/19 11:13:43;;;;;;;8.50;7.80;;;31.10;63.10;;;;;;5034439;28;20458;-53
2022/08/19 11:16:16;;;;;;;9.63;8.73;;;31.00;63.40;;;;;;5034176;28;20533;-53
2022/08/19 11:18:48;;;;;;;9.13;8.33;;;31.00;64.10;;;;;;5031097;28;20581;-54
2022/08/19 11:21:18;;;;;;;8.90;8.20;;;31.00;63.00;;;;;;5006768;28;20484;-53
2022/08/19 11:23:46;;;;;;;9.43;8.60;;;30.90;63.50;;;;;;5009924;28;20462;-54
2022/08/19 11:26:13;;;;;;;9.57;8.77;;;;;;;;;;5014824;28;20791;-53
2022/08/19 11:28:40;;;;;;;9.43;8.43;;;31.00;63.40;;;;;;5018120;28;20657;-52
2022/08/19 11:31:11;;;;;;;8.33;7.57;;;31.20;63.30;;;;;;5016017;28;20489;-52
2022/08/19 11:33:38;;;;;;;8.20;7.60;;;31.30;63.10;;;;;;5021813;28;20494;-52
2022/08/19 11:36:07;;;;;;;9.93;8.17;;;31.00;60.90;;;;;;5020457;28;20454;-52
2022/08/19 11:38:34;;;;;;;9.43;7.90;;;31.00;61.80;;;;;;5007850;28;20454;-51
2022/08/19 11:41:02;;;;;;;8.63;7.77;;;31.00;61.80;;;;;;5026758;28;20893;-52
2022/08/19 11:43:30;;;;;;;8.93;8.13;;;31.20;62.10;;;;;;5018566;28;20459;-52
2022/08/19 11:45:58;;;;;;;8.27;7.50;;;31.30;60.90;;;;;;5022231;28;20450;-51
2022/08/19 11:48:26;;;;;;;11.00;6.87;;;31.50;62.40;;;;;;5014128;28;20723;-51
2022/08/19 11:50:55;;;;;;;8.20;7.40;;;31.70;61.10;;;;;;5019774;28;21065;-52
2022/08/19 11:53:23;;;;;;;7.80;7.03;;;31.80;61.30;;;;;;5021548;28;20458;-52
2022/08/19 11:55:55;;;;;;;7.43;6.53;;;32.00;61.50;;;;;;5023176;28;20454;-52
2022/08/19 11:58:24;;;;;;;6.70;6.20;;;32.10;59.10;;;;;;5014707;28;20495;-52
2022/08/19 12:00:51;;;;;;;7.13;6.47;;;32.40;61.00;;;;;;5019273;28;20490;-51
2022/08/19 12:03:19;;;;;;;7.30;6.60;;;;;;;;;;5014816;28;21069;-53
2022/08/19 12:05:46;;;;;;;8.00;6.93;;;32.00;57.80;;;;;;5016718;28;20993;-53
2022/08/19 12:08:15;;;;;;;6.60;6.00;;;31.60;57.90;;;;;;5017249;28;21068;-52
2022/08/19 12:10:44;;;;;;;7.13;5.93;;;31.30;59.00;;;;;;5021113;28;21107;-52
2022/08/19 12:13:12;;;;;;;6.63;6.03;;;31.30;59.40;;;;;;5022492;28;20451;-51
2022/08/19 12:15:40;;;;;;;8.10;6.87;;;31.30;58.30;;;;;;5019282;28;20486;-52
2022/08/19 12:18:09;;;;;;;10.10;6.43;;;31.20;58.40;;;;;;5014103;28;20924;-53
2022/08/19 12:20:36;;;;;;;7.33;6.13;;;30.90;57.00;;;;;;5016848;28;20482;-54
2022/08/19 12:23:04;;;;;;;5.60;5.10;;;31.00;57.80;;;;;;5014429;28;21175;-51
2022/08/19 12:25:31;;;;;;;5.43;4.93;;;30.80;57.70;;;;;;4989656;28;20462;-53
2022/08/19 12:27:59;;;;;;;5.90;5.40;;;31.10;58.90;;;;;;5011576;28;20979;-52
2022/08/19 12:30:26;;;;;;;6.53;4.80;;;31.50;58.20;;;;;;5018872;28;20535;-53
2022/08/19 12:32:53;;;;;;;5.30;4.90;;;32.00;57.00;;;;;;5024794;28;20853;-55
2022/08/19 12:35:20;;;;;;;6.67;4.73;;;32.30;54.70;;;;;;5014261;28;21120;-55
2022/08/19 12:37:48;;;;;;;11.57;5.07;;;32.50;54.70;;;;;;5015553;28;21348;-55
2022/08/19 12:40:17;;;;;;;6.60;4.93;;;32.50;54.90;;;;;;5025973;28;20487;-53
2022/08/19 12:42:44;;;;;;;4.60;3.97;;;32.70;53.00;;;;;;5021660;28;21074;-55
2022/08/19 12:45:14;;;;;;;4.97;4.57;;;32.60;53.80;;;;;;5019039;28;20475;-55
2022/08/19 12:47:41;;;;;;;6.33;4.30;;;32.70;53.70;;;;;;5018387;28;20687;-55
2022/08/19 12:50:09;;;;;;;4.60;4.20;;;32.60;53.80;;;;;;5021676;28;20480;-56